Time;durP1;ratioP1;P1;durP2;ratioP2;P2;SDS_P1;SDS_P2;PMS_P1;PMS_P2;Temp;Humidity;BMP_temperature;BMP_pressure;BME280_temperature;BME280_humidity;BME280_pressure;Samples;Min_cycle;Max_cycle;Signal;HPM_P1;HPM_P2
2021/09/22 00:00:11;;;;;;;;;;;;;;;-142.75;100.00;78235.97;5072441;28;19919;-79
2021/09/22 00:02:36;;;;;;;;;;;;;;;-142.75;100.00;78232.03;5073377;28;20262;-79
2021/09/22 00:05:01;;;;;;;;;;;;;;;-142.75;100.00;78226.13;5053793;28;20360;-79
2021/09/22 00:07:26;;;;;;;;;;;;;;;-142.75;100.00;78220.22;5054736;28;19924;-79
2021/09/22 00:09:52;;;;;;;;;;;;;;;-142.75;100.00;78220.22;5054244;28;19916;-79
2021/09/22 00:12:17;;;;;;;;;;;;;;;-142.75;100.00;78232.03;5052307;28;19924;-78
2021/09/22 00:14:42;;;;;;;;;;;;;;;-142.75;100.00;78234.00;5071914;28;20258;-79
2021/09/22 00:17:07;;;;;;;;;;;;;;;-142.75;100.00;78232.03;5072802;28;19913;-79
2021/09/22 00:19:32;;;;;;;;;;;;;;;-142.75;100.00;78241.88;5071373;28;19919;-80
2021/09/22 00:21:58;;;;;;;;;;;;;;;-142.75;100.00;78243.84;5055069;28;19920;-79
2021/09/22 00:24:23;;;;;;;;;;;;;;;-142.75;100.00;78247.78;5053854;28;19942;-79
2021/09/22 00:26:48;;;;;;;;;;;;;;;-142.75;100.00;78255.66;5053495;28;20452;-78
2021/09/22 00:29:13;;;;;;;;;;;;;;;-142.75;100.00;78259.59;5070747;28;19912;-78
2021/09/22 00:31:38;;;;;;;;;;;;;;;-142.75;100.00;78273.38;5072553;28;19919;-79
2021/09/22 00:34:04;;;;;;;;;;;;;;;-142.75;100.00;78271.41;5073475;28;19935;-80
2021/09/22 00:36:30;;;;;;;;;;;;;;;-142.75;100.00;78275.34;5054315;28;19913;-80
2021/09/22 00:38:55;;;;;;;;;;;;;;;-142.75;100.00;78275.34;5055057;28;19912;-80
2021/09/22 00:41:20;;;;;;;;;;;;;;;-142.75;100.00;78267.47;5054332;28;20305;-79
2021/09/22 00:43:45;;;;;;;;;;;;;;;-142.75;100.00;78255.66;5055361;28;19916;-78
2021/09/22 00:46:11;;;;;;;;;;;;;;;-142.75;100.00;78247.78;5054107;28;19916;-79
2021/09/22 00:48:36;;;;;;;;;;;;;;;-142.75;100.00;78259.59;5054123;28;19912;-79
2021/09/22 00:51:02;;;;;;;;;;;;;;;-142.75;100.00;78265.50;5072504;28;19923;-80
2021/09/22 00:53:28;;;;;;;;;;;;;;;-142.75;100.00;78265.50;5054326;28;19923;-78
2021/09/22 00:55:53;;;;;;;;;;;;;;;-142.75;100.00;78259.59;5058317;28;19912;-80
2021/09/22 00:58:18;;;;;;;;;;;;;;;-142.75;100.00;78265.50;5077461;28;20007;-79
2021/09/22 01:00:43;;;;;;;;;;;;;;;-142.75;100.00;78259.59;5077472;28;19912;-79
2021/09/22 01:03:08;;;;;;;;;;;;;;;-142.75;100.00;78259.59;5058739;28;19923;-79
2021/09/22 01:05:34;;;;;;;;;;;;;;;-142.75;100.00;78263.53;5058870;28;20009;-79
2021/09/22 01:07:59;;;;;;;;;;;;;;;-142.75;100.00;78267.47;5058499;28;20359;-79
2021/09/22 01:10:25;;;;;;;;;;;;;;;-142.75;100.00;78253.69;5075645;28;19912;-79
2021/09/22 01:12:50;;;;;;;;;;;;;;;-142.75;100.00;78251.72;5059060;28;19912;-79
2021/09/22 01:15:35;;;;;;;;;;;;;;;-142.75;100.00;78257.63;5077308;28;19912;-78
2021/09/22 01:18:01;;;;;;;;;;;;;;;-142.75;100.00;78251.72;5059306;28;19971;-80
2021/09/22 01:20:29;;;;;;;;;;;;;;;-142.75;100.00;78257.63;5057174;28;19959;-80
2021/09/22 01:22:55;;;;;;;;;;;;;;;-142.75;100.00;78259.59;5054627;28;19912;-77
2021/09/22 01:25:21;;;;;;;;;;;;;;;-142.75;100.00;78271.41;5056266;28;19919;-79
2021/09/22 01:27:47;;;;;;;;;;;;;;;-142.75;100.00;78271.41;5075060;28;19961;-79
2021/09/22 01:30:12;;;;;;;;;;;;;;;-142.75;100.00;78277.31;5075018;28;19916;-79
2021/09/22 01:32:46;;;;;;;;;;;;;;;-142.75;100.00;78279.28;5056399;28;19912;-79
2021/09/22 01:35:11;;;;;;;;;;;;;;;-142.75;100.00;78283.22;5056743;28;20317;-79
2021/09/22 01:37:36;;;;;;;;;;;;;;;-142.75;100.00;78283.22;5075032;28;19913;-79
2021/09/22 01:40:02;;;;;;;;;;;;;;;-142.75;100.00;78287.16;5056128;28;19931;-79
2021/09/22 01:42:27;;;;;;;;;;;;;;;-142.75;100.00;78279.28;5056309;28;19978;-78
2021/09/22 01:44:52;;;;;;;;;;;;;;;-142.75;100.00;78302.94;5073721;28;19912;-80
2021/09/22 01:47:17;;;;;;;;;;;;;;;-142.75;100.00;78318.69;5057228;28;20371;-79
2021/09/22 01:49:42;;;;;;;;;;;;;;;-142.75;100.00;78326.56;5055833;28;19947;-79
2021/09/22 01:52:08;;;;;;;;;;;;;;;-142.75;100.00;78332.47;5056303;28;19912;-78
2021/09/22 01:54:33;;;;;;;;;;;;;;;-142.75;100.00;78322.63;5056924;28;20282;-79
2021/09/22 01:56:58;;;;;;;;;;;;;;;-142.75;100.00;78302.94;5074795;28;19912;-79
2021/09/22 01:59:23;;;;;;;;;;;;;;;-142.75;100.00;78302.94;5074351;28;19912;-78
2021/09/22 02:01:48;;;;;;;;;;;;;;;-142.75;100.00;78299.00;5055886;28;20445;-79
2021/09/22 02:04:14;;;;;;;;;;;;;;;-142.75;100.00;78293.06;5073794;28;20408;-79
2021/09/22 02:06:39;;;;;;;;;;;;;;;-142.75;100.00;78312.78;5072272;28;20324;-78
2021/09/22 02:09:04;;;;;;;;;;;;;;;-142.75;100.00;78322.63;5074826;28;19944;-79
2021/09/22 02:11:29;;;;;;;;;;;;;;;-142.75;100.00;78320.66;5057613;28;20000;-79
2021/09/22 02:13:55;;;;;;;;;;;;;;;-142.75;100.00;78328.53;5076752;28;19916;-79
2021/09/22 02:16:20;;;;;;;;;;;;;;;-142.75;100.00;78330.50;5076223;28;19916;-80
2021/09/22 02:18:45;;;;;;;;;;;;;;;-142.75;100.00;78344.28;5058126;28;19916;-80
2021/09/22 02:21:10;;;;;;;;;;;;;;;-142.75;100.00;78342.31;5076700;28;19974;-78
2021/09/22 02:23:38;;;;;;;;;;;;;;;-142.75;100.00;78334.44;5075693;28;19912;-79
2021/09/22 02:26:03;;;;;;;;;;;;;;;-142.75;100.00;78322.63;5056550;28;19970;-80
2021/09/22 02:28:28;;;;;;;;;;;;;;;-142.75;100.00;78318.69;5057564;28;19912;-79
2021/09/22 02:30:53;;;;;;;;;;;;;;;-142.75;100.00;78318.69;5092783;22;20057;-78
2021/09/22 02:33:19;;;;;;;;;;;;;;;-142.75;100.00;78320.66;5068991;28;20003;-78
2021/09/22 02:35:44;;;;;;;;;;;;;;;-142.75;100.00;78314.75;5071193;28;19912;-78
2021/09/22 02:38:09;;;;;;;;;;;;;;;-142.75;100.00;78312.78;5065828;28;19922;-78
2021/09/22 02:40:34;;;;;;;;;;;;;;;-142.75;100.00;78312.78;5062184;28;20401;-77
2021/09/22 02:42:59;;;;;;;;;;;;;;;-142.75;100.00;78314.75;5039555;28;19912;-78
2021/09/22 02:45:25;;;;;;;;;;;;;;;-142.75;100.00;78316.72;5055848;28;20046;-78
2021/09/22 02:47:50;;;;;;;;;;;;;;;-142.75;100.00;78314.75;5040158;28;19921;-78
2021/09/22 02:50:17;;;;;;;;;;;;;;;-142.75;100.00;78316.72;5059395;28;19920;-78
2021/09/22 02:52:43;;;;;;;;;;;;;;;-142.75;100.00;78318.69;5057933;28;19918;-77
2021/09/22 02:55:08;;;;;;;;;;;;;;;-142.75;100.00;78314.75;5053032;28;19995;-78
2021/09/22 02:57:33;;;;;;;;;;;;;;;-142.75;100.00;78300.97;5056839;28;19923;-78
2021/09/22 02:59:59;;;;;;;;;;;;;;;-142.75;100.00;78293.06;5058968;28;20410;-78
2021/09/22 03:02:24;;;;;;;;;;;;;;;-142.75;100.00;78302.94;5059940;28;19919;-78
2021/09/22 03:04:49;;;;;;;;;;;;;;;-142.75;100.00;78308.84;5057042;28;20007;-78
2021/09/22 03:07:14;;;;;;;;;;;;;;;-142.75;100.00;78306.88;5055592;28;19916;-77
2021/09/22 03:09:39;;;;;;;;;;;;;;;-142.75;100.00;78306.88;5056805;28;19920;-78
2021/09/22 03:12:05;;;;;;;;;;;;;;;-142.75;100.00;78302.94;5056187;28;19978;-79
2021/09/22 03:14:30;;;;;;;;;;;;;;;-142.75;100.00;78306.88;5037067;28;19916;-77
2021/09/22 03:16:55;;;;;;;;;;;;;;;-142.75;100.00;78291.09;5056998;28;19919;-78
2021/09/22 03:19:20;;;;;;;;;;;;;;;-142.75;100.00;78293.06;5057507;28;19917;-78
2021/09/22 03:21:46;;;;;;;;;;;;;;;-142.75;100.00;78299.00;5058737;28;19940;-78
2021/09/22 03:24:11;;;;;;;;;;;;;;;-142.75;100.00;78291.09;5058905;28;19913;-79
2021/09/22 03:26:36;;;;;;;;;;;;;;;-142.75;100.00;78295.06;5039819;28;20054;-78
2021/09/22 03:29:01;;;;;;;;;;;;;;;-142.75;100.00;78295.06;5059799;28;20365;-78
2021/09/22 03:31:27;;;;;;;;;;;;;;;-142.75;100.00;78304.91;5055006;28;19958;-77
2021/09/22 03:33:52;;;;;;;;;;;;;;;-142.75;100.00;78310.81;5057003;28;19953;-78
2021/09/22 03:36:17;;;;;;;;;;;;;;;-142.75;100.00;78304.91;5056689;28;19920;-78
2021/09/22 03:38:42;;;;;;;;;;;;;;;-142.75;100.00;78306.88;5054992;28;19913;-78
2021/09/22 03:41:07;;;;;;;;;;;;;;;-142.75;100.00;78306.88;5039070;28;19920;-78
2021/09/22 03:43:33;;;;;;;;;;;;;;;-142.75;100.00;78302.94;5056795;28;19913;-78
2021/09/22 03:45:58;;;;;;;;;;;;;;;-142.75;100.00;78295.06;5040995;28;19917;-77
2021/09/22 03:48:23;;;;;;;;;;;;;;;-142.75;100.00;78293.06;5056237;28;19938;-77
2021/09/22 03:50:49;;;;;;;;;;;;;;;-142.75;100.00;78297.00;5055803;28;20336;-79
2021/09/22 03:53:16;;;;;;;;;;;;;;;-142.75;100.00;78295.06;5053152;28;19913;-78
2021/09/22 03:55:41;;;;;;;;;;;;;;;-142.75;100.00;78287.16;5056385;28;19978;-78
2021/09/22 03:58:06;;;;;;;;;;;;;;;-142.75;100.00;78299.00;5054553;28;19913;-77
2021/09/22 04:00:31;;;;;;;;;;;;;;;-142.75;100.00;78300.97;5052473;28;19955;-78
2021/09/22 04:02:57;;;;;;;;;;;;;;;-142.75;100.00;78295.06;5055251;28;19978;-78
2021/09/22 04:05:22;;;;;;;;;;;;;;;-142.75;100.00;78295.06;5055223;28;19913;-78
2021/09/22 04:07:47;;;;;;;;;;;;;;;-142.75;100.00;78291.09;5035120;28;19923;-78
2021/09/22 04:10:12;;;;;;;;;;;;;;;-142.75;100.00;78283.22;5037825;28;20435;-78
2021/09/22 04:12:37;;;;;;;;;;;;;;;-142.75;100.00;78277.31;5034211;28;20003;-78
2021/09/22 04:15:03;;;;;;;;;;;;;;;-142.75;100.00;78297.00;5041407;28;20000;-78
2021/09/22 04:17:28;;;;;;;;;;;;;;;-142.75;100.00;78312.78;5057670;28;19992;-77
2021/09/22 04:19:53;;;;;;;;;;;;;;;-142.75;100.00;78322.63;5037616;28;20277;-78
2021/09/22 04:22:19;;;;;;;;;;;;;;;-142.75;100.00;78318.69;5056256;28;19931;-79
2021/09/22 04:24:44;;;;;;;;;;;;;;;-142.75;100.00;78330.50;5036571;28;19921;-77
2021/09/22 04:27:09;;;;;;;;;;;;;;;-142.75;100.00;78324.59;5037357;28;19962;-78
2021/09/22 04:29:34;;;;;;;;;;;;;;;-142.75;100.00;78330.50;5057451;28;19912;-78
2021/09/22 04:32:00;;;;;;;;;;;;;;;-142.75;100.00;78326.56;5060316;28;19920;-78
2021/09/22 04:34:25;;;;;;;;;;;;;;;-142.75;100.00;78330.50;5043990;28;19920;-78
2021/09/22 04:36:50;;;;;;;;;;;;;;;-142.75;100.00;78338.38;5046142;28;19917;-79
2021/09/22 04:39:15;;;;;;;;;;;;;;;-142.75;100.00;78344.28;5061903;28;19997;-78
2021/09/22 04:41:41;;;;;;;;;;;;;;;-142.75;100.00;78348.22;5043387;28;19940;-78
2021/09/22 04:44:06;;;;;;;;;;;;;;;-142.75;100.00;78340.34;5061027;28;19952;-78
2021/09/22 04:46:31;;;;;;;;;;;;;;;-142.75;100.00;78338.38;5044735;28;19917;-78
2021/09/22 04:48:57;;;;;;;;;;;;;;;-142.75;100.00;78340.34;5044166;28;20019;-78
2021/09/22 04:51:22;;;;;;;;;;;;;;;-142.75;100.00;78346.25;5041141;28;19920;-78
2021/09/22 04:53:47;;;;;;;;;;;;;;;-142.75;100.00;78344.28;5042389;28;19919;-77
2021/09/22 04:56:14;;;;;;;;;;;;;;;-142.75;100.00;78342.31;5042626;28;19984;-79
2021/09/22 04:58:39;;;;;;;;;;;;;;;-142.75;100.00;78340.34;5043380;28;19913;-78
2021/09/22 05:01:04;;;;;;;;;;;;;;;-142.75;100.00;78340.34;5043173;28;19913;-78
2021/09/22 05:03:30;;;;;;;;;;;;;;;-142.75;100.00;78342.31;5060975;28;19979;-78
2021/09/22 05:05:57;;;;;;;;;;;;;;;-142.75;100.00;78340.34;5057771;28;19921;-77
2021/09/22 05:08:22;;;;;;;;;;;;;;;-142.75;100.00;78346.25;5060396;28;20289;-78
2021/09/22 05:10:47;;;;;;;;;;;;;;;-142.75;100.00;78350.19;5041787;28;19913;-77
2021/09/22 05:13:12;;;;;;;;;;;;;;;-142.75;100.00;78350.19;5059571;28;19920;-78
2021/09/22 05:15:37;;;;;;;;;;;;;;;-142.75;100.00;78350.19;5061023;28;19966;-78
2021/09/22 05:18:02;;;;;;;;;;;;;;;-142.75;100.00;78342.31;5059468;28;19913;-78
2021/09/22 05:20:28;;;;;;;;;;;;;;;-142.75;100.00;78334.44;5039663;28;19963;-77
2021/09/22 05:22:53;;;;;;;;;;;;;;;-142.75;100.00;78346.25;5042376;28;19954;-78
2021/09/22 05:25:18;;;;;;;;;;;;;;;-142.75;100.00;78342.31;5060016;28;19913;-79
2021/09/22 05:27:44;;;;;;;;;;;;;;;-142.75;100.00;78334.44;5034939;28;19924;-78
2021/09/22 05:30:09;;;;;;;;;;;;;;;-142.75;100.00;78328.53;5041258;28;20606;-77
2021/09/22 05:32:34;;;;;;;;;;;;;;;-142.75;100.00;78338.38;5041440;28;19919;-78
2021/09/22 05:35:00;;;;;;;;;;;;;;;-142.75;100.00;78336.41;5040013;28;19916;-78
2021/09/22 05:37:27;;;;;;;;;;;;;;;-142.75;100.00;78330.50;5042589;28;19959;-78
2021/09/22 05:39:52;;;;;;;;;;;;;;;-142.75;100.00;78330.50;5040103;28;19919;-78
2021/09/22 05:42:17;;;;;;;;;;;;;;;-142.75;100.00;78326.56;5058618;28;19948;-78
2021/09/22 05:44:42;;;;;;;;;;;;;;;-142.75;100.00;78322.63;5060354;28;19912;-78
2021/09/22 05:47:07;;;;;;;;;;;;;;;-142.75;100.00;78318.69;5042537;28;20374;-79
2021/09/22 05:49:33;;;;;;;;;;;;;;;-142.75;100.00;78314.75;5060233;28;19927;-78
2021/09/22 05:51:58;;;;;;;;;;;;;;;-142.75;100.00;78314.75;5040981;28;19912;-78
2021/09/22 05:54:23;;;;;;;;;;;;;;;-142.75;100.00;78300.97;5037387;28;19912;-77
2021/09/22 05:56:48;;;;;;;;;;;;;;;-142.75;100.00;78297.00;5055825;28;19991;-77
2021/09/22 05:59:14;;;;;;;;;;;;;;;-142.75;100.00;78281.25;5037163;28;19919;-77
2021/09/22 06:01:39;;;;;;;;;;;;;;;-142.75;100.00;78267.47;5055291;28;19947;-77
2021/09/22 06:04:05;;;;;;;;;;;;;;;-142.75;100.00;78271.41;5037424;28;19947;-76
2021/09/22 06:06:30;;;;;;;;;;;;;;;-142.75;100.00;78259.59;5055700;28;19931;-77
2021/09/22 06:08:55;;;;;;;;;;;;;;;-142.75;100.00;78245.81;5055536;28;19920;-77
2021/09/22 06:11:20;;;;;;;;;;;;;;;-142.75;100.00;78230.06;5055563;28;19923;-77
2021/09/22 06:13:49;;;;;;;;;;;;;;;-142.75;100.00;78220.22;5055248;28;20377;-77
2021/09/22 06:16:14;;;;;;;;;;;;;;;-142.75;100.00;78200.53;5055478;28;19913;-77
2021/09/22 06:18:39;;;;;;;;;;;;;;;-142.75;100.00;78176.88;5054701;28;19948;-78
2021/09/22 06:21:04;;;;;;;;;;;;;;;-142.75;100.00;78163.09;5055637;28;20414;-77
2021/09/22 06:23:29;;;;;;;;;;;;;;;-142.75;100.00;78149.31;5054946;28;19912;-77
2021/09/22 06:25:55;;;;;;;;;;;;;;;-142.75;100.00;78135.53;5036753;28;19958;-76
2021/09/22 06:28:20;;;;;;;;;;;;;;;-142.75;100.00;78125.69;5036917;28;19920;-77
2021/09/22 06:30:45;;;;;;;;;;;;;;;-142.75;100.00;78086.31;5037714;28;19975;-77
2021/09/22 06:33:10;;;;;;;;;;;;;;;-142.75;100.00;78044.94;5055251;28;19963;-77
2021/09/22 06:35:35;;;;;;;;;;;;;;;-142.75;100.00;78015.41;5037392;28;19913;-76
2021/09/22 06:38:01;;;;;;;;;;;;;;;-142.75;100.00;77983.91;5037240;28;19923;-78
2021/09/22 06:40:26;;;;;;;;;;;;;;;-142.75;100.00;77966.19;5036901;28;20318;-77
2021/09/22 06:42:51;;;;;;;;;;;;;;;-142.75;100.00;77944.53;5036625;28;19919;-78
2021/09/22 06:45:20;;;;;;;;;;;;;;;-142.75;100.00;77924.84;5053984;28;19919;-77
2021/09/22 06:47:45;;;;;;;;;;;;;;;-142.75;99.50;77913.03;5054616;28;19924;-76
2021/09/22 06:50:10;;;;;;;;;;;;;;;-142.75;98.27;77924.84;5036277;28;19917;-77
2021/09/22 06:52:35;;;;;;;;;;;;;;;-142.75;97.22;77928.78;5053511;28;20412;-77
2021/09/22 06:55:01;;;;;;;;;;;;;;;-142.75;97.16;77928.78;5053871;28;19917;-78
2021/09/22 06:57:26;;;;;;;;;;;;;;;-142.75;96.95;77907.09;5056363;28;19912;-78
2021/09/22 06:59:51;;;;;;;;;;;;;;;-142.75;95.32;77875.59;5055337;28;19913;-78
2021/09/22 07:02:16;;;;;;;;;;;;;;;-142.75;93.85;77871.66;5055632;28;19913;-77
2021/09/22 07:04:42;;;;;;;;;;;;;;;-142.75;93.31;77846.06;5053560;28;19955;-76
2021/09/22 07:07:07;;;;;;;;;;;;;;;-142.75;92.83;77792.91;5054293;28;19932;-77
2021/09/22 07:09:32;;;;;;;;;;;;;;;-142.75;89.92;77757.47;5053590;28;20385;-77
2021/09/22 07:11:58;;;;;;;;;;;;;;;-142.75;87.55;77753.53;5054058;28;19938;-76
2021/09/22 07:14:23;;;;;;;;;;;;;;;-142.75;85.96;77696.41;5035610;28;19999;-77
2021/09/22 07:16:48;;;;;;;;;;;;;;;-142.75;84.79;77586.16;5053215;28;19913;-76
2021/09/22 07:19:13;;;;;;;;;;;;;;;-142.75;79.75;77487.72;5035735;28;19919;-77
2021/09/22 07:21:39;;;;;;;;;;;;;;;-142.75;75.27;77432.56;5034795;28;19913;-77
2021/09/22 07:24:04;;;;;;;;;;;;;;;-142.75;72.27;77332.16;5053977;28;19950;-78
2021/09/22 07:26:29;;;;;;;;;;;;;;;-142.75;68.33;77245.53;5053999;28;19920;-78
2021/09/22 07:28:55;;;;;;;;;;;;;;;-142.75;64.76;77184.50;5037199;28;20267;-78
2021/09/22 07:31:20;;;;;;;;;;;;;;;-142.75;62.61;77153.00;5036795;28;19912;-77
2021/09/22 07:33:46;;;;;;;;;;;;;;;-142.75;62.43;77162.84;5036180;28;19921;-77
2021/09/22 07:36:11;;;;;;;;;;;;;;;-142.75;61.83;77190.41;5035250;28;19917;-77
2021/09/22 07:38:36;;;;;;;;;;;;;;;-142.75;62.42;77174.66;5053040;28;19913;-76
2021/09/22 07:41:02;;;;;;;;;;;;;;;-142.75;61.29;77153.00;5036009;28;20297;-77
2021/09/22 07:43:27;;;;;;;;;;;;;;;-142.75;60.62;77097.88;5034746;28;19919;-77
2021/09/22 07:45:52;;;;;;;;;;;;;;;-142.75;59.44;77032.91;5034757;28;19919;-77
2021/09/22 07:48:17;;;;;;;;;;;;;;;-142.75;56.45;76981.72;5035180;28;20293;-77
2021/09/22 07:50:42;;;;;;;;;;;;;;;-142.75;56.85;76991.56;5052288;28;20479;-77
2021/09/22 07:53:08;;;;;;;;;;;;;;;-142.75;55.93;76932.50;5052303;28;19913;-78
2021/09/22 07:55:33;;;;;;;;;;;;;;;-142.75;54.78;76895.09;5053257;28;19912;-78
2021/09/22 07:57:58;;;;;;;;;;;;;;;-142.75;53.75;76918.72;5052268;28;19921;-77
2021/09/22 08:00:23;;;;;;;;;;;;;;;-142.75;53.23;76849.81;5052350;28;20496;-78
2021/09/22 08:02:49;;;;;;;;;;;;;;;-142.75;51.86;76818.31;5052115;28;19912;-77
2021/09/22 08:05:14;;;;;;;;;;;;;;;-142.75;50.87;76832.09;5053829;28;20476;-76
2021/09/22 08:07:40;;;;;;;;;;;;;;;-142.75;50.42;76816.34;5056476;28;19940;-78
2021/09/22 08:10:05;;;;;;;;;;;;;;;-142.75;49.62;76780.94;5037311;28;19912;-78
2021/09/22 08:12:31;;;;;;;;;;;;;;;-142.75;49.12;76755.34;5039661;28;19917;-77
2021/09/22 08:14:56;;;;;;;;;;;;;;;-142.75;48.18;76796.69;5037277;28;19971;-76
2021/09/22 08:17:21;;;;;;;;;;;;;;;-142.75;49.24;76743.53;5037722;28;19920;-78
2021/09/22 08:19:47;;;;;;;;;;;;;;;-142.75;47.98;76714.00;5037109;28;19912;-77
2021/09/22 08:22:12;;;;;;;;;;;;;;;-142.75;46.48;76704.16;5036790;28;20016;-77
2021/09/22 08:24:38;;;;;;;;;;;;;;;-142.75;47.12;76680.53;5035859;28;19921;-77
2021/09/22 08:27:04;;;;;;;;;;;;;;;-142.75;45.88;76641.16;5036684;28;19917;-77
2021/09/22 08:29:30;;;;;;;;;;;;;;;-142.75;44.68;76615.56;5053735;28;19923;-76
2021/09/22 08:31:55;;;;;;;;;;;;;;;-142.75;44.59;76613.59;5054219;28;20011;-77
2021/09/22 08:34:20;;;;;;;;;;;;;;;-142.75;45.02;76562.41;5053793;28;20405;-76
2021/09/22 08:36:46;;;;;;;;;;;;;;;-142.75;43.65;76562.41;5054489;28;19921;-77
2021/09/22 08:39:12;;;;;;;;;;;;;;;-142.75;43.40;76542.72;5036427;28;19912;-77
2021/09/22 08:41:38;;;;;;;;;;;;;;;-142.75;42.51;76507.31;5036157;28;19936;-75
2021/09/22 08:44:04;;;;;;;;;;;;;;;-142.75;42.28;76509.28;5053469;28;20117;-77
2021/09/22 08:46:32;;;;;;;;;;;;;;;-142.75;43.50;76599.81;5054045;28;20533;-77
2021/09/22 08:49:01;;;;;;;;;;;;;;;-142.75;43.11;76511.25;5053722;28;19913;-77
2021/09/22 08:51:27;;;;;;;;;;;;;;;-142.75;43.28;76485.66;5053444;28;19916;-76
2021/09/22 08:53:52;;;;;;;;;;;;;;;-142.75;41.46;76436.44;5053212;28;19917;-77
2021/09/22 08:56:17;;;;;;;;;;;;;;;-142.75;41.26;76408.88;5035513;28;19920;-76
2021/09/22 08:58:42;;;;;;;;;;;;;;;-142.75;40.98;76424.63;5053397;28;20369;-77
2021/09/22 09:01:12;;;;;;;;;;;;;;;-142.75;41.11;76412.81;5053108;28;19959;-76
2021/09/22 09:03:40;;;;;;;;;;;;;;;-142.75;40.36;76385.25;5053326;28;19974;-77
2021/09/22 09:06:16;;;;;;;;;;;;;;;-142.75;40.22;76349.81;5053994;28;19916;-75
2021/09/22 09:08:41;;;;;;;;;;;;;;;-142.75;38.66;76253.38;5053081;28;19923;-76
2021/09/22 09:11:06;;;;;;;;;;;;;;;-142.75;38.60;76271.09;5035929;28;19913;-76
2021/09/22 09:13:43;;;;;;;;;;;;;;;-142.75;38.84;76277.00;5035524;28;19978;-75
2021/09/22 09:16:14;;;;;;;;;;;;;;;-142.75;39.00;76278.97;5052887;28;19912;-76
2021/09/22 09:18:43;;;;;;;;;;;;;;;-142.75;40.10;76379.34;5053221;28;20521;-75
2021/09/22 09:21:08;;;;;;;;;;;;;;;-142.75;39.71;76373.44;5052876;28;20281;-76
2021/09/22 09:23:33;;;;;;;;;;;;;;;-142.75;38.91;76365.56;5052666;28;19912;-75
2021/09/22 09:26:02;;;;;;;;;;;;;;;-142.75;39.52;76241.56;5035728;28;19912;-77
2021/09/22 09:28:29;;;;;;;;;;;;;;;-142.75;36.73;76093.94;5037079;28;19921;-75
2021/09/22 09:30:56;;;;;;;;;;;;;;;-142.75;36.45;76086.06;5053809;28;20386;-76
2021/09/22 09:33:40;;;;;;;;;;;;;;;-142.75;36.21;76086.06;5054307;28;19916;-78
2021/09/22 09:36:14;;;;;;;;;;;;;;;-142.75;37.31;76147.09;5055075;28;19966;-76
2021/09/22 09:38:39;;;;;;;;;;;;;;;-142.75;38.78;76440.38;5053970;28;19935;-76
2021/09/22 09:41:04;;;;;;;;;;;;;;;-142.75;39.42;76314.41;5053085;28;20358;-76
2021/09/22 09:43:30;;;;;;;;;;;;;;;-142.75;37.60;76282.91;5053669;28;19913;-79
2021/09/22 09:45:55;;;;;;;;;;;;;;;-142.75;38.40;76381.31;5052917;28;19920;-77
2021/09/22 09:48:22;;;;;;;;;;;;;;;-142.75;38.56;76298.66;5052489;28;19917;-77
2021/09/22 09:50:52;;;;;;;;;;;;;;;-142.75;38.35;76253.38;5052263;28;19919;-77
2021/09/22 09:53:35;;;;;;;;;;;;;;;-142.75;38.40;76296.69;5052598;28;19912;-76
2021/09/22 09:56:01;;;;;;;;;;;;;;;-142.75;37.10;76160.88;5052597;28;19924;-77
2021/09/22 09:58:28;;;;;;;;;;;;;;;-142.75;37.56;76168.75;5052283;28;19912;-77
2021/09/22 10:00:57;;;;;;;;;;;;;;;-142.75;37.05;76113.63;5052928;28;19919;-77
2021/09/22 10:03:23;;;;;;;;;;;;;;;-142.75;36.07;76093.94;5053830;28;19920;-77
2021/09/22 10:05:48;;;;;;;;;;;;;;;-142.75;36.08;76052.63;5034239;28;19912;-77
2021/09/22 10:08:14;;;;;;;;;;;;;;;-142.75;35.85;76044.75;5053151;28;19923;-76
2021/09/22 10:10:48;;;;;;;;;;;;;;;-142.75;36.13;76029.00;5034561;28;19913;-77
2021/09/22 10:13:14;;;;;;;;;;;;;;;-142.75;34.42;75906.97;5053034;28;19951;-77
2021/09/22 10:15:40;;;;;;;;;;;;;;;-142.75;35.02;75971.91;5034986;28;20627;-77
2021/09/22 10:18:06;;;;;;;;;;;;;;;-142.75;34.68;75905.00;5052306;28;19912;-76
2021/09/22 10:20:32;;;;;;;;;;;;;;;-142.75;33.27;75838.09;5052151;28;20002;-77
2021/09/22 10:22:58;;;;;;;;;;;;;;;-142.75;33.82;75940.44;5052774;28;19912;-77
2021/09/22 10:25:23;;;;;;;;;;;;;;;-142.75;34.36;75889.25;5052639;28;19919;-77
2021/09/22 10:27:49;;;;;;;;;;;;;;;-142.75;32.79;75773.13;5051529;28;19916;-78
2021/09/22 10:30:15;;;;;;;;;;;;;;;-142.75;32.66;75771.16;5052753;28;19920;-77
2021/09/22 10:32:42;;;;;;;;;;;;;;;-142.75;32.74;75887.28;5035085;28;19912;-77
2021/09/22 10:35:25;;;;;;;;;;;;;;;-142.75;33.04;75905.00;5034562;28;19936;-78
2021/09/22 10:37:55;;;;;;;;;;;;;;;-142.75;32.46;75822.34;5034093;28;19912;-77
2021/09/22 10:40:40;;;;;;;;;;;;;;;-142.75;33.37;75881.38;5034857;28;20377;-78
2021/09/22 10:43:14;;;;;;;;;;;;;;;-142.75;32.44;75782.97;5051176;28;19919;-76
2021/09/22 10:45:42;;;;;;;;;;;;;;;-142.75;31.62;75824.31;5051328;28;20055;-78
2021/09/22 10:48:21;;;;;;;;;;;;;;;-142.75;34.36;76030.97;5052543;28;20376;-77
2021/09/22 10:50:46;;;;;;;;;;;;;;;-142.75;33.94;75932.56;5051813;28;19935;-77
2021/09/22 10:53:30;;;;;;;;;;;;;;;-142.75;32.56;76019.16;5052205;28;20385;-78
2021/09/22 10:56:02;;;;;;;;;;;;;;;-142.75;33.89;75960.13;5052967;28;19986;-76
2021/09/22 10:58:36;;;;;;;;;;;;;;;-142.75;32.60;75883.34;5052858;28;19921;-77
2021/09/22 11:01:01;;;;;;;;;;;;;;;-142.75;31.37;75786.91;5053671;28;19939;-78
2021/09/22 11:03:46;;;;;;;;;;;;;;;-142.75;32.02;75739.69;5033208;28;20378;-77
2021/09/22 11:06:30;;;;;;;;;;;;;;;-142.75;32.25;75967.97;5050992;28;19924;-78
2021/09/22 11:09:08;;;;;;;;;;;;;;;-142.75;32.82;75790.84;5051315;28;19965;-77
2021/09/22 11:11:52;;;;;;;;;;;;;;;-142.75;31.78;75838.09;5033481;28;19912;-76
2021/09/22 11:14:29;;;;;;;;;;;;;;;-142.75;32.36;75991.59;5050861;28;19966;-76
2021/09/22 11:16:55;;;;;;;;;;;;;;;-142.75;32.85;75899.09;5032922;28;19995;-76
2021/09/22 11:19:21;;;;;;;;;;;;;;;-142.75;32.60;75814.47;5050717;28;20362;-76
2021/09/22 11:21:47;;;;;;;;;;;;;;;-142.75;32.45;75960.13;5050493;28;19920;-76
2021/09/22 11:24:15;;;;;;;;;;;;;;;-142.75;32.88;75845.97;5049933;28;19955;-76
2021/09/22 11:26:53;;;;;;;;;;;;;;;-142.75;31.71;75800.69;5050347;28;19920;-76
2021/09/22 11:29:28;;;;;;;;;;;;;;;-142.75;30.89;75731.81;5032531;28;19913;-74
2021/09/22 11:31:54;;;;;;;;;;;;;;;-142.75;31.56;75751.50;5050157;28;20007;-76
2021/09/22 11:34:29;;;;;;;;;;;;;;;-142.75;30.49;75700.31;5049976;28;20008;-76
2021/09/22 11:37:07;;;;;;;;;;;;;;;-142.75;30.53;75694.41;5050104;28;19963;-76
2021/09/22 11:39:32;;;;;;;;;;;;;;;-142.75;31.44;76011.28;5048811;28;19913;-77
2021/09/22 11:41:58;;;;;;;;;;;;;;;-142.75;33.89;76188.44;5050319;28;19966;-76
2021/09/22 11:44:30;;;;;;;;;;;;;;;-142.75;34.70;76160.88;5049785;28;20011;-76
2021/09/22 11:47:00;;;;;;;;;;;;;;;-142.75;34.94;76200.25;5032278;28;19916;-75
2021/09/22 11:49:34;;;;;;;;;;;;;;;-142.75;36.16;76341.97;5032280;28;19967;-75
2021/09/22 11:52:03;;;;;;;;;;;;;;;-142.75;36.14;76326.22;5050255;28;19934;-75
2021/09/22 11:54:29;;;;;;;;;;;;;;;-142.75;37.53;76373.44;5049698;28;19912;-75
2021/09/22 11:57:05;;;;;;;;;;;;;;;-142.75;37.77;76432.50;5049972;28;20348;-75
2021/09/22 11:59:31;;;;;;;;;;;;;;;-142.75;38.96;76534.84;5032125;28;19916;-76
2021/09/22 12:01:57;;;;;;;;;;;;;;;-142.75;39.55;76483.69;5049715;28;20420;-75
2021/09/22 12:04:22;;;;;;;;;;;;;;;-142.75;39.71;76566.34;5049732;28;19952;-75
2021/09/22 12:06:48;;;;;;;;;;;;;;;-142.75;39.20;76530.91;5049894;28;19920;-76
2021/09/22 12:09:13;;;;;;;;;;;;;;;-142.75;39.69;76487.63;5049826;28;19917;-74
2021/09/22 12:11:38;;;;;;;;;;;;;;;-142.75;39.18;76607.69;5049833;28;19956;-74
2021/09/22 12:14:03;;;;;;;;;;;;;;;-142.75;40.76;76582.09;5031591;28;20401;-74
2021/09/22 12:16:29;;;;;;;;;;;;;;;-142.75;41.71;76664.78;5031823;28;19912;-74